Time;durP1;ratioP1;P1;durP2;ratioP2;P2;SDS_P1;SDS_P2;PMS_P1;PMS_P2;Temp;Humidity;BMP_temperature;BMP_pressure;BME280_temperature;BME280_humidity;BME280_pressure;Samples;Min_cycle;Max_cycle;Signal;HPM_P1;HPM_P2
2022/02/02 00:04:45;;;;;;;31.77;4.55;;;8.90;92.60;;;;;;5095606;28;20036;-66
2022/02/02 00:09:49;;;;;;;23.13;4.60;;;8.90;92.10;;;;;;5091189;28;20444;-66
2022/02/02 00:12:37;;;;;;;32.10;6.10;;;8.90;92.50;;;;;;5086793;28;20111;-66
2022/02/02 00:15:32;;;;;;;27.35;4.93;;;8.90;92.70;;;;;;5088432;28;20414;-66
2022/02/02 00:18:06;;;;;;;18.35;3.83;;;8.90;92.20;;;;;;5090892;28;20028;-66
2022/02/02 00:20:42;;;;;;;40.97;7.05;;;8.90;92.60;;;;;;5080581;28;20451;-66
2022/02/02 00:23:15;;;;;;;35.95;4.50;;;8.90;92.70;;;;;;5090654;28;20376;-66
2022/02/02 00:25:49;;;;;;;22.38;5.65;;;8.90;92.90;;;;;;5093415;28;20115;-66
2022/02/02 00:28:15;;;;;;;20.90;4.68;;;9.00;92.80;;;;;;5083483;28;20069;-66
2022/02/02 00:30:40;;;;;;;16.58;3.42;;;9.00;92.90;;;;;;5094922;28;20071;-66
2022/02/02 00:33:19;;;;;;;18.08;3.40;;;9.00;93.00;;;;;;5101916;28;20024;-66
2022/02/02 00:35:55;;;;;;;17.83;3.13;;;9.00;93.10;;;;;;5093525;28;20024;-66
2022/02/02 00:38:20;;;;;;;10.85;2.67;;;9.00;93.30;;;;;;5085047;28;20051;-66
2022/02/02 00:40:46;;;;;;;17.02;3.38;;;9.00;93.40;;;;;;5095129;28;20464;-66
2022/02/02 00:43:12;;;;;;;16.50;3.78;;;9.00;93.50;;;;;;5095136;28;20499;-66
2022/02/02 00:45:43;;;;;;;19.67;3.60;;;9.00;93.50;;;;;;5103796;28;20065;-66
2022/02/02 00:48:10;;;;;;;20.35;3.35;;;9.00;93.60;;;;;;5099720;27;20506;-66
2022/02/02 00:50:36;;;;;;;19.33;3.53;;;9.00;93.60;;;;;;5095409;28;20028;-66
2022/02/02 00:53:02;;;;;;;30.88;5.60;;;8.90;93.80;;;;;;5093891;28;20035;-65
2022/02/02 00:55:28;;;;;;;28.75;4.07;;;9.00;94.20;;;;;;5095184;28;20078;-66
2022/02/02 00:57:53;;;;;;;19.75;4.13;;;9.00;94.30;;;;;;5092914;28;20038;-66
2022/02/02 01:00:20;;;;;;;19.33;3.55;;;9.00;94.20;;;;;;5083681;28;20491;-66
2022/02/02 01:02:46;;;;;;;44.88;5.43;;;9.00;94.20;;;;;;5094664;28;20040;-66
2022/02/02 01:05:12;;;;;;;34.70;5.88;;;9.00;94.20;;;;;;5094794;28;20123;-66
2022/02/02 01:10:32;;;;;;;21.55;3.78;;;9.00;94.50;;;;;;5094542;28;20051;-66
2022/02/02 01:21:01;;;;;;;20.27;4.57;;;8.90;93.70;;;;;;5103862;28;20016;-66
2022/02/02 01:28:41;;;;;;;28.48;4.85;;;8.90;93.60;;;;;;5084574;28;20032;-66
2022/02/02 01:31:12;;;;;;;26.98;4.50;;;8.90;93.50;;;;;;5091263;28;20031;-66
2022/02/02 01:33:38;;;;;;;29.90;5.38;;;8.90;93.60;;;;;;5093097;28;20031;-66
2022/02/02 01:36:05;;;;;;;30.08;4.32;;;8.80;93.40;;;;;;5086833;28;20036;-66
2022/02/02 01:38:34;;;;;;;23.00;4.30;;;8.80;93.40;;;;;;5093707;28;20036;-66
2022/02/02 01:41:08;;;;;;;41.42;5.05;;;8.80;93.40;;;;;;5093187;28;20071;-66
2022/02/02 01:43:41;;;;;;;28.48;4.25;;;8.80;93.40;;;;;;5090668;28;20441;-66
2022/02/02 01:46:11;;;;;;;28.00;5.35;;;8.70;93.60;;;;;;5093421;28;20039;-66
2022/02/02 01:53:46;;;;;;;30.02;3.78;;;8.80;93.70;;;;;;5093879;28;20059;-66
2022/02/02 01:56:15;;;;;;;28.52;4.40;;;8.80;93.80;;;;;;5093216;28;20123;-66
2022/02/02 02:01:10;;;;;;;26.65;5.35;;;8.70;93.70;;;;;;5085886;28;20032;-66
2022/02/02 02:03:36;;;;;;;35.13;5.63;;;8.70;93.60;;;;;;5095868;28;20036;-66
2022/02/02 02:06:03;;;;;;;37.10;5.38;;;8.80;93.40;;;;;;5098554;28;20074;-66
2022/02/02 02:08:29;;;;;;;30.00;5.50;;;8.70;93.20;;;;;;5075871;28;20037;-66
2022/02/02 02:10:54;;;;;;;21.63;5.22;;;8.70;93.10;;;;;;5092847;28;20084;-66
2022/02/02 02:13:47;;;;;;;13.02;3.13;;;8.70;92.70;;;;;;5093419;28;20033;-66
2022/02/02 02:16:09;;;;;;;19.73;4.50;;;8.70;92.70;;;;;;5092840;28;20036;-66
2022/02/02 02:18:35;;;;;;;28.70;4.75;;;8.70;92.40;;;;;;5093148;28;20369;-66
2022/02/02 02:21:02;;;;;;;36.25;5.13;;;8.60;92.30;;;;;;5093522;28;20031;-66
2022/02/02 02:23:30;;;;;;;33.13;5.80;;;8.70;92.60;;;;;;5092358;28;20032;-66
2022/02/02 02:25:55;;;;;;;39.38;5.47;;;8.70;92.30;;;;;;5092984;28;20036;-66
2022/02/02 02:28:37;;;;;;;39.05;5.53;;;8.70;92.70;;;;;;5093572;28;20031;-66
2022/02/02 02:31:23;;;;;;;22.95;3.72;;;8.70;92.80;;;;;;5092026;28;20039;-66
2022/02/02 02:35:00;;;;;;;32.88;5.05;;;8.60;92.80;;;;;;5088197;28;20064;-66
2022/02/02 02:37:06;;;;;;;24.77;3.83;;;8.70;93.00;;;;;;5065428;28;20132;-66
2022/02/02 02:55:54;;;;;;;16.83;2.83;;;8.70;93.50;;;;;;5077406;28;20071;-66
2022/02/02 03:01:14;;;;;;;10.38;1.85;;;8.50;93.00;;;;;;5086723;28;20036;-66
2022/02/02 04:03:11;;;;;;;17.05;2.78;;;8.20;92.70;;;;;;5091044;28;20373;-66
2022/02/02 04:05:43;;;;;;;37.97;5.50;;;8.20;92.70;;;;;;5091981;28;20111;-66
2022/02/02 04:10:59;;;;;;;35.13;5.15;;;8.20;92.40;;;;;;5095477;28;20039;-66
2022/02/02 04:52:41;;;;;;;33.05;5.43;;;8.20;90.90;;;;;;5094444;28;20035;-66
2022/02/02 04:54:29;;;;;;;34.33;4.55;;;8.30;91.10;;;;;;5080149;28;20587;-66
2022/02/02 05:04:47;;;;;;;32.22;4.20;;;8.30;91.10;;;;;;5084341;28;20069;-66
2022/02/02 05:07:19;;;;;;;42.70;6.13;;;8.30;91.30;;;;;;5093900;28;20035;-66
2022/02/02 05:10:04;;;;;;;43.92;6.50;;;8.30;91.40;;;;;;5095083;28;20043;-66
2022/02/02 05:52:24;;;;;;;30.50;6.30;;;8.40;92.10;;;;;;5114233;28;20504;-67
2022/02/02 05:54:50;;;;;;;29.60;4.68;;;8.40;92.20;;;;;;5106600;27;20046;-66
2022/02/02 05:57:16;;;;;;;45.95;5.63;;;8.40;92.40;;;;;;5111966;28;20462;-66
2022/02/02 05:59:43;;;;;;;25.75;3.70;;;8.40;92.40;;;;;;5108526;28;20043;-66
2022/02/02 06:02:13;;;;;;;42.60;5.85;;;8.40;92.50;;;;;;5104421;28;20032;-66
2022/02/02 06:04:45;;;;;;;26.63;4.28;;;8.40;92.50;;;;;;5104037;28;20066;-66
2022/02/02 06:07:11;;;;;;;24.25;4.88;;;8.50;92.60;;;;;;5106744;28;20545;-66
2022/02/02 06:09:40;;;;;;;37.80;5.75;;;8.50;92.60;;;;;;5108197;28;20122;-66
2022/02/02 06:12:07;;;;;;;42.22;5.85;;;8.50;92.60;;;;;;5106934;28;20020;-67
2022/02/02 06:14:36;;;;;;;19.10;3.90;;;8.60;92.70;;;;;;5093328;28;20487;-66
2022/02/02 06:17:06;;;;;;;29.27;4.53;;;8.60;92.70;;;;;;5099712;28;20111;-66
2022/02/02 06:19:31;;;;;;;30.52;4.65;;;8.60;92.70;;;;;;5106708;28;20055;-65
2022/02/02 06:22:18;;;;;;;38.22;4.57;;;8.60;92.20;;;;;;5111498;28;20101;-66
2022/02/02 06:25:02;;;;;;;36.22;5.85;;;8.60;92.40;;;;;;5107882;28;20035;-66
2022/02/02 06:27:28;;;;;;;39.60;6.10;;;8.50;92.30;;;;;;5110054;28;20023;-65
2022/02/02 06:30:02;;;;;;;25.10;4.53;;;8.60;92.40;;;;;;5110728;28;20467;-65
2022/02/02 06:32:36;;;;;;;49.67;7.60;;;8.50;92.50;;;;;;5111369;28;20104;-66
2022/02/02 06:35:04;;;;;;;32.90;4.75;;;8.50;92.60;;;;;;5108759;27;20028;-65
2022/02/02 06:37:30;;;;;;;35.85;5.22;;;8.60;92.60;;;;;;5104528;28;20092;-66
2022/02/02 06:39:56;;;;;;;23.83;5.55;;;8.60;92.60;;;;;;5107887;28;20114;-66
2022/02/02 06:42:22;;;;;;;28.52;4.40;;;8.60;92.50;;;;;;5108204;28;20023;-68
2022/02/02 06:44:49;;;;;;;22.67;3.85;;;8.60;92.30;;;;;;5109315;28;20097;-68
2022/02/02 06:47:16;;;;;;;23.95;3.67;;;8.60;92.10;;;;;;5109895;28;20034;-69
2022/02/02 06:49:47;;;;;;;37.75;6.43;;;8.60;92.10;;;;;;5110185;28;20105;-69
2022/02/02 06:52:26;;;;;;;23.35;3.75;;;8.60;92.10;;;;;;5109419;28;20411;-67
2022/02/02 06:55:12;;;;;;;41.55;5.43;;;8.70;92.20;;;;;;5099261;28;20043;-67
2022/02/02 06:58:04;;;;;;;31.08;5.00;;;8.70;92.30;;;;;;5072484;28;20024;-66
2022/02/02 07:00:52;;;;;;;64.68;8.57;;;8.70;92.40;;;;;;5105791;28;20024;-66
2022/02/02 07:03:31;;;;;;;55.00;5.60;;;8.70;92.60;;;;;;5083179;28;20131;-66
2022/02/02 07:11:30;;;;;;;30.83;4.45;;;8.70;92.80;;;;;;5083594;28;20036;-66
2022/02/02 07:16:46;;;;;;;37.65;5.80;;;8.70;92.80;;;;;;5092484;28;20028;-67
2022/02/02 07:19:26;;;;;;;43.13;6.97;;;8.70;92.90;;;;;;5080180;28;20040;-67
2022/02/02 07:29:36;;;;;;;22.55;3.83;;;8.70;92.60;;;;;;5097652;28;20028;-66
2022/02/02 07:32:11;;;;;;;17.33;3.42;;;8.70;91.90;;;;;;5092004;28;20033;-66
2022/02/02 07:35:31;;;;;;;34.97;4.60;;;8.60;92.40;;;;;;5082184;28;20032;-67
2022/02/02 07:37:35;;;;;;;24.58;4.20;;;8.60;92.00;;;;;;5098318;28;20081;-67
2022/02/02 07:40:05;;;;;;;24.60;5.25;;;8.50;92.10;;;;;;5095068;28;20459;-66
2022/02/02 07:42:32;;;;;;;15.25;2.72;;;8.50;92.00;;;;;;5095298;28;20032;-66
2022/02/02 07:45:07;;;;;;;29.92;5.30;;;8.50;92.30;;;;;;5089259;28;20040;-66
2022/02/02 07:47:37;;;;;;;30.73;4.20;;;8.50;92.20;;;;;;5074246;28;20036;-67
2022/02/02 07:50:05;;;;;;;17.00;2.45;;;8.50;92.30;;;;;;5084898;28;20032;-67
2022/02/02 07:52:32;;;;;;;15.73;2.28;;;8.50;92.50;;;;;;5095998;28;20472;-66
2022/02/02 07:55:01;;;;;;;17.85;3.67;;;8.50;92.50;;;;;;5095423;28;20127;-67
2022/02/02 07:57:28;;;;;;;24.02;3.92;;;8.50;92.10;;;;;;5096128;28;20043;-66
2022/02/02 07:59:58;;;;;;;29.17;4.13;;;8.50;92.10;;;;;;5096296;28;20032;-66
2022/02/02 08:05:04;;;;;;;22.55;4.43;;;8.60;92.10;;;;;;5087705;28;20044;-67
2022/02/02 08:07:37;;;;;;;21.35;3.88;;;8.60;91.90;;;;;;5095687;28;20032;-67
2022/02/02 08:10:26;;;;;;;21.98;3.40;;;8.60;92.20;;;;;;5095350;28;20496;-66
2022/02/02 08:12:54;;;;;;;28.15;3.72;;;8.60;92.10;;;;;;5084946;28;20028;-66
2022/02/02 08:15:22;;;;;;;14.68;2.50;;;8.60;91.90;;;;;;5094964;28;20063;-67
2022/02/02 08:17:50;;;;;;;29.23;4.72;;;8.60;91.80;;;;;;5095622;28;20500;-66
2022/02/02 08:20:19;;;;;;;19.33;2.78;;;8.60;91.60;;;;;;5095963;28;20050;-67
2022/02/02 08:22:44;;;;;;;24.70;3.55;;;8.60;91.70;;;;;;5094923;28;20459;-67
2022/02/02 08:25:16;;;;;;;22.85;3.45;;;8.60;91.60;;;;;;5095400;28;20043;-67
2022/02/02 08:27:43;;;;;;;14.93;2.38;;;8.60;91.70;;;;;;5095392;28;20476;-66
2022/02/02 08:30:15;;;;;;;21.70;4.28;;;8.70;91.80;;;;;;5094978;28;20028;-67
2022/02/02 08:32:50;;;;;;;22.92;3.38;;;8.60;91.60;;;;;;5095468;28;20040;-67
2022/02/02 08:35:20;;;;;;;28.90;3.30;;;8.70;91.60;;;;;;5088569;28;20118;-67
2022/02/02 08:37:49;;;;;;;27.70;4.13;;;8.70;91.70;;;;;;5085930;28;20842;-66
2022/02/02 08:40:30;;;;;;;21.58;4.22;;;8.70;91.70;;;;;;5104565;28;20044;-67
2022/02/02 08:43:00;;;;;;;18.58;3.25;;;8.70;91.50;;;;;;5081232;28;20070;-66
2022/02/02 08:45:30;;;;;;;33.53;4.63;;;8.70;91.40;;;;;;5095128;28;20073;-66
2022/02/02 08:48:01;;;;;;;31.77;5.50;;;8.70;91.20;;;;;;5095478;28;20032;-67
2022/02/02 08:53:16;;;;;;;31.05;4.85;;;8.80;91.40;;;;;;5094926;28;20032;-66
2022/02/02 09:00:54;;;;;;;37.30;4.75;;;8.90;91.90;;;;;;5086466;28;20029;-67
2022/02/02 09:06:04;;;;;;;30.00;3.72;;;8.90;92.10;;;;;;5080989;28;20028;-66
2022/02/02 09:08:31;;;;;;;22.10;3.45;;;8.90;92.00;;;;;;5094859;28;20518;-67
2022/02/02 09:24:26;;;;;;;31.08;6.03;;;9.00;92.10;;;;;;5087620;28;20055;-67
2022/02/02 09:32:59;;;;;;;16.98;3.15;;;9.00;92.00;;;;;;5094635;28;20434;-69
2022/02/02 09:35:24;;;;;;;34.00;6.03;;;8.90;92.00;;;;;;5090979;28;20032;-69
2022/02/02 09:37:50;;;;;;;37.80;5.80;;;9.00;91.80;;;;;;5094004;28;20451;-68
2022/02/02 09:43:02;;;;;;;17.27;3.40;;;9.10;92.00;;;;;;5106339;28;20040;-70
2022/02/02 09:45:28;;;;;;;27.00;3.78;;;9.10;92.20;;;;;;5112809;28;20031;-68
2022/02/02 09:48:12;;;;;;;26.58;4.55;;;9.10;92.40;;;;;;5094814;28;20115;-68
2022/02/02 09:50:46;;;;;;;25.50;5.32;;;9.10;92.70;;;;;;5093589;28;20035;-68
2022/02/02 09:53:19;;;;;;;35.97;5.45;;;9.20;92.50;;;;;;5093560;28;20036;-68
2022/02/02 09:56:12;;;;;;;9.57;1.98;;;9.10;92.40;;;;;;5102555;28;20031;-69
2022/02/02 09:58:59;;;;;;;27.17;4.20;;;9.20;92.30;;;;;;5091046;28;20039;-70
2022/02/02 10:13:20;;;;;;;20.40;3.22;;;9.20;92.40;;;;;;5057912;28;20032;-65
2022/02/02 10:15:47;;;;;;;31.58;4.78;;;9.20;92.60;;;;;;5104634;28;20110;-65
2022/02/02 10:18:22;;;;;;;35.95;5.38;;;9.20;92.70;;;;;;5112810;28;20112;-66
2022/02/02 10:20:52;;;;;;;36.72;4.30;;;9.30;92.80;;;;;;5099639;28;20032;-66
2022/02/02 10:23:34;;;;;;;25.35;3.28;;;9.30;92.80;;;;;;5092628;28;20036;-66
2022/02/02 10:26:23;;;;;;;32.17;4.38;;;9.30;92.90;;;;;;5093022;28;20047;-66
2022/02/02 10:28:50;;;;;;;17.27;2.70;;;9.30;92.90;;;;;;5096720;28;20047;-66
2022/02/02 10:31:16;;;;;;;31.33;4.68;;;9.30;92.90;;;;;;5107836;28;20031;-66
2022/02/02 10:33:42;;;;;;;27.02;4.35;;;9.40;92.80;;;;;;5089341;28;20035;-67
2022/02/02 10:36:28;;;;;;;30.10;4.68;;;9.40;92.80;;;;;;5103662;28;20020;-66
2022/02/02 10:39:07;;;;;;;25.83;4.53;;;9.40;92.90;;;;;;5105435;28;20032;-66
2022/02/02 10:41:57;;;;;;;32.55;4.93;;;9.40;93.00;;;;;;5101871;28;20051;-66
2022/02/02 10:44:36;;;;;;;42.47;5.30;;;9.40;92.90;;;;;;5080149;28;20550;-66
2022/02/02 10:47:25;;;;;;;25.63;3.70;;;9.50;92.70;;;;;;5092381;28;20031;-66
2022/02/02 10:50:05;;;;;;;31.25;5.85;;;9.50;92.90;;;;;;5094245;28;20080;-66
2022/02/02 10:52:48;;;;;;;27.13;3.15;;;9.60;93.00;;;;;;5111650;28;20114;-66
2022/02/02 10:55:49;;;;;;;25.23;4.32;;;9.60;93.10;;;;;;5099512;28;20122;-66
2022/02/02 10:58:29;;;;;;;33.88;3.83;;;9.60;93.00;;;;;;5092113;28;20036;-66
2022/02/02 11:01:20;;;;;;;26.90;4.13;;;9.70;93.10;;;;;;5092933;28;20035;-66
2022/02/02 11:06:39;;;;;;;47.15;5.70;;;9.70;93.20;;;;;;5112171;28;20023;-66
2022/02/02 11:09:07;;;;;;;42.70;6.45;;;9.80;93.30;;;;;;5107383;28;20471;-66
2022/02/02 11:11:34;;;;;;;26.77;4.15;;;9.80;93.10;;;;;;5111177;28;20031;-66
2022/02/02 11:14:09;;;;;;;22.73;3.70;;;9.90;93.40;;;;;;5084681;28;20443;-66
2022/02/02 11:16:38;;;;;;;25.00;4.03;;;9.90;93.30;;;;;;5081007;28;20031;-65
2022/02/02 11:19:07;;;;;;;13.68;3.13;;;9.90;93.30;;;;;;5091200;28;20032;-66
2022/02/02 11:21:35;;;;;;;34.90;4.60;;;10.00;93.20;;;;;;5092134;28;20073;-66
2022/02/02 11:24:18;;;;;;;16.45;3.25;;;10.00;93.10;;;;;;5092378;28;20135;-66
2022/02/02 11:26:48;;;;;;;22.73;3.50;;;10.00;93.10;;;;;;5080583;28;20029;-66
2022/02/02 11:29:43;;;;;;;24.33;4.32;;;10.00;93.10;;;;;;5079117;28;20036;-66
2022/02/02 11:32:13;;;;;;;26.88;4.97;;;10.10;92.70;;;;;;5090810;28;20069;-65
2022/02/02 11:34:40;;;;;;;20.80;3.80;;;10.10;91.90;;;;;;5080431;28;20115;-66
2022/02/02 11:37:07;;;;;;;14.30;2.45;;;10.10;92.70;;;;;;5090964;28;20067;-66
2022/02/02 11:39:49;;;;;;;21.48;3.85;;;10.10;92.80;;;;;;5091696;28;20032;-66
2022/02/02 11:42:42;;;;;;;15.55;3.20;;;10.10;92.90;;;;;;5092373;28;20111;-67
2022/02/02 11:45:42;;;;;;;12.95;1.98;;;10.20;92.90;;;;;;5098903;28;20039;-67
2022/02/02 11:48:15;;;;;;;26.27;3.50;;;10.20;92.70;;;;;;5104907;28;20497;-67
2022/02/02 11:50:51;;;;;;;16.17;2.80;;;10.10;92.80;;;;;;5111898;28;20055;-69
2022/02/02 11:53:51;;;;;;;11.52;2.10;;;10.10;92.60;;;;;;5110635;28;20035;-69
2022/02/02 11:56:19;;;;;;;18.27;2.78;;;10.10;93.00;;;;;;5111119;28;20058;-67
2022/02/02 11:58:44;;;;;;;13.23;3.92;;;10.10;92.60;;;;;;5091894;28;20032;-67
2022/02/02 12:01:23;;;;;;;11.57;1.75;;;10.20;92.20;;;;;;5090793;28;20062;-67
2022/02/02 12:04:18;;;;;;;11.00;3.45;;;10.20;92.90;;;;;;5083875;28;20411;-67
2022/02/02 12:09:33;;;;;;;14.30;2.70;;;10.20;91.10;;;;;;5111248;28;20127;-66
2022/02/02 12:48:05;;;;;;;13.35;1.63;;;10.50;92.00;;;;;;5115017;28;20039;-66
2022/02/02 12:56:25;;;;;;;10.85;2.53;;;10.60;92.50;;;;;;5047358;28;20029;-66
2022/02/02 12:59:12;;;;;;;19.83;2.85;;;10.60;92.90;;;;;;5046653;28;20170;-66
2022/02/02 13:01:37;;;;;;;6.50;1.88;;;10.60;93.00;;;;;;5086554;28;20039;-66
2022/02/02 13:04:03;;;;;;;15.23;2.70;;;10.60;93.00;;;;;;5108563;28;20039;-66
2022/02/02 13:06:39;;;;;;;10.60;2.33;;;10.60;93.10;;;;;;5112048;28;20027;-66
2022/02/02 13:09:05;;;;;;;15.27;3.30;;;10.60;93.10;;;;;;5111829;28;20114;-66
2022/02/02 13:11:34;;;;;;;29.08;4.88;;;10.70;92.70;;;;;;5111022;28;20641;-66
2022/02/02 13:14:03;;;;;;;15.50;2.30;;;10.60;92.70;;;;;;5106943;28;20015;-66
2022/02/02 13:16:30;;;;;;;29.35;3.55;;;10.60;92.80;;;;;;5110803;28;20036;-66
2022/02/02 13:19:02;;;;;;;14.75;2.78;;;10.70;92.60;;;;;;5109251;28;20020;-66
2022/02/02 13:21:32;;;;;;;10.00;2.35;;;10.70;92.40;;;;;;5107658;28;20019;-66
2022/02/02 13:24:10;;;;;;;11.02;2.15;;;10.80;92.70;;;;;;5109739;28;20050;-66
2022/02/02 13:26:58;;;;;;;4.55;1.17;;;10.80;92.80;;;;;;5110148;28;20474;-66
2022/02/02 13:29:29;;;;;;;18.00;3.55;;;10.80;92.90;;;;;;5104104;28;20047;-66
2022/02/02 13:32:07;;;;;;;6.75;1.50;;;10.80;92.50;;;;;;5101725;28;20024;-66
2022/02/02 13:34:42;;;;;;;9.77;1.92;;;10.80;93.10;;;;;;5100029;28;20035;-65
2022/02/02 13:37:57;;;;;;;5.15;2.13;;;10.80;92.50;;;;;;5098287;28;20138;-66
2022/02/02 13:51:11;;;;;;;11.05;2.70;;;10.90;92.60;;;;;;5104542;28;20043;-65
2022/02/02 14:09:12;;;;;;;6.45;1.55;;;11.00;93.10;;;;;;5106981;28;20088;-66
2022/02/02 14:25:39;;;;;;;17.40;3.05;;;11.00;93.30;;;;;;5100201;28;20032;-65
2022/02/02 14:31:11;;;;;;;24.23;3.25;;;11.20;92.20;;;;;;5100941;28;20119;-65
2022/02/02 14:33:47;;;;;;;15.20;2.40;;;11.20;92.20;;;;;;5093497;28;20028;-65
2022/02/02 14:36:17;;;;;;;14.55;2.20;;;11.20;92.60;;;;;;5108455;28;20110;-66
2022/02/02 14:39:00;;;;;;;19.23;3.08;;;11.20;93.10;;;;;;5109760;28;20027;-66
2022/02/02 14:49:29;;;;;;;22.52;2.63;;;11.20;93.40;;;;;;5091801;28;20024;-68
2022/02/02 14:52:11;;;;;;;13.93;1.85;;;11.30;93.40;;;;;;5092149;28;20127;-65
2022/02/02 15:31:50;;;;;;;12.35;2.03;;;11.70;93.00;;;;;;5105525;28;20032;-69
2022/02/02 15:34:24;;;;;;;10.45;2.22;;;11.60;93.20;;;;;;5083717;28;20040;-67
2022/02/02 15:37:18;;;;;;;14.75;2.10;;;11.70;93.20;;;;;;5085140;28;20107;-67
2022/02/02 15:39:42;;;;;;;20.60;2.97;;;11.70;93.20;;;;;;5101288;28;20123;-69
2022/02/02 15:54:45;;;;;;;7.90;1.67;;;11.70;92.90;;;;;;5069154;28;20040;-65
2022/02/02 15:58:33;;;;;;;17.00;2.83;;;11.70;93.30;;;;;;5104208;28;20020;-66
2022/02/02 16:03:35;;;;;;;21.38;2.65;;;11.70;93.60;;;;;;5106025;28;20035;-69
2022/02/02 16:06:23;;;;;;;17.30;2.10;;;11.70;93.70;;;;;;5109628;27;20038;-67
2022/02/02 16:08:57;;;;;;;10.52;1.85;;;11.70;93.80;;;;;;5106140;28;20040;-65
2022/02/02 16:11:29;;;;;;;18.92;2.38;;;11.60;93.90;;;;;;5107643;28;20030;-68
2022/02/02 16:14:03;;;;;;;15.20;2.05;;;11.60;93.90;;;;;;5106134;28;20378;-66
2022/02/02 16:18:59;;;;;;;13.57;1.95;;;11.60;94.10;;;;;;5103716;28;20085;-67
2022/02/02 16:35:45;;;;;;;6.68;1.80;;;11.50;94.10;;;;;;5091248;28;20054;-67
2022/02/02 16:38:11;;;;;;;6.82;2.22;;;11.40;94.00;;;;;;5094694;28;20040;-67
2022/02/02 16:40:38;;;;;;;11.32;2.35;;;11.40;94.00;;;;;;5095372;28;20039;-66
2022/02/02 16:43:13;;;;;;;12.00;2.40;;;11.40;94.10;;;;;;5094452;28;20031;-66
2022/02/02 16:45:52;;;;;;;6.55;1.73;;;11.40;94.00;;;;;;5105681;28;20028;-66
2022/02/02 16:48:18;;;;;;;23.05;2.92;;;11.30;94.00;;;;;;5090114;28;20032;-66
2022/02/02 16:50:48;;;;;;;11.05;1.88;;;11.30;93.90;;;;;;5087625;28;20483;-66
2022/02/02 16:56:00;;;;;;;17.20;2.25;;;11.20;93.90;;;;;;5094118;28;20096;-67
2022/02/02 17:31:02;;;;;;;3.40;1.05;;;10.80;93.60;;;;;;5094184;28;20032;-66
2022/02/02 17:33:33;;;;;;;17.02;3.08;;;10.70;93.50;;;;;;5079704;28;20039;-67
2022/02/02 17:36:14;;;;;;;14.60;2.67;;;10.70;93.50;;;;;;5088293;28;20046;-71
2022/02/02 17:44:14;;;;;;;16.67;1.90;;;10.70;93.60;;;;;;5110109;28;20032;-67
2022/02/02 18:14:31;;;;;;;9.95;2.22;;;10.40;93.50;;;;;;5103451;28;20023;-66
2022/02/02 18:17:24;;;;;;;19.30;2.42;;;10.40;93.50;;;;;;5108996;28;20065;-68
2022/02/02 18:19:11;;;;;;;10.73;1.58;;;10.40;93.50;;;;;;5109642;28;20106;-66
2022/02/02 18:21:37;;;;;;;9.52;2.15;;;10.40;93.50;;;;;;5105674;28;20765;-66
2022/02/02 18:40:37;;;;;;;5.85;1.50;;;10.30;93.30;;;;;;5105162;28;20027;-67
2022/02/02 18:50:26;;;;;;;21.27;3.13;;;10.10;93.30;;;;;;5106839;28;20027;-66
2022/02/02 18:55:40;;;;;;;23.00;3.15;;;10.10;93.30;;;;;;5106069;28;20069;-67
2022/02/02 19:00:59;;;;;;;;;;;10.00;93.20;;;;;;5107604;28;20545;-66
2022/02/02 19:55:52;;;;;;;21.85;3.25;;;9.70;93.10;;;;;;5106358;28;20051;-67
2022/02/02 20:03:55;;;;;;;21.33;3.78;;;9.70;93.10;;;;;;5104061;28;20097;-66
2022/02/02 20:11:42;;;;;;;;;;;9.70;93.10;;;;;;5101628;28;20107;-67
2022/02/02 20:14:09;;;;;;;19.83;3.15;;;9.60;93.00;;;;;;5104192;28;19989;-67
2022/02/02 20:16:35;;;;;;;14.32;2.97;;;9.60;93.00;;;;;;5099590;28;20076;-67
2022/02/02 20:19:04;;;;;;;15.10;3.45;;;9.60;93.00;;;;;;5103570;28;20040;-67
2022/02/02 20:21:34;;;;;;;16.75;3.63;;;9.60;93.10;;;;;;5104770;28;20478;-66
2022/02/02 20:24:02;;;;;;;9.25;2.42;;;9.60;93.10;;;;;;5101774;28;20093;-67
2022/02/02 20:26:33;;;;;;;2.97;1.05;;;9.60;93.10;;;;;;5098926;28;20487;-67
2022/02/02 20:29:01;;;;;;;11.45;2.67;;;9.60;93.00;;;;;;5102474;28;20040;-66
2022/02/02 20:31:27;;;;;;;13.80;3.00;;;9.60;93.00;;;;;;5107350;28;20520;-67
2022/02/02 20:33:52;;;;;;;18.98;3.10;;;9.60;92.90;;;;;;5105400;28;20028;-66
2022/02/02 20:36:18;;;;;;;23.15;3.95;;;9.60;92.90;;;;;;5107678;28;20420;-67
2022/02/02 20:38:44;;;;;;;12.68;2.85;;;9.60;92.90;;;;;;5088875;28;20383;-67
2022/02/02 20:41:09;;;;;;;20.55;3.90;;;9.60;92.90;;;;;;5101492;28;20103;-67
2022/02/02 20:46:32;;;;;;;18.00;3.05;;;9.60;92.90;;;;;;5103896;28;20534;-68
2022/02/02 21:05:27;;;;;;;1.58;0.55;;;9.50;92.70;;;;;;5099159;28;20047;-67
2022/02/02 21:10:31;;;;;;;12.40;2.38;;;9.50;92.60;;;;;;5101867;28;20028;-67
2022/02/02 21:15:43;;;;;;;1.33;0.70;;;9.40;92.60;;;;;;5106776;28;20058;-68
2022/02/02 21:18:12;;;;;;;15.93;2.95;;;9.40;92.50;;;;;;5110665;28;20028;-68
2022/02/02 21:24:05;;;;;;;9.20;1.77;;;9.40;92.60;;;;;;5063867;28;20122;-69
2022/02/02 21:29:09;;;;;;;16.95;3.38;;;9.40;92.50;;;;;;5107589;28;20379;-67
2022/02/02 21:31:35;;;;;;;8.00;2.22;;;9.30;92.50;;;;;;5097051;28;20032;-67
2022/02/02 21:34:00;;;;;;;10.93;2.20;;;9.30;92.50;;;;;;5085610;28;20036;-67
2022/02/02 21:36:26;;;;;;;9.13;1.65;;;9.30;92.50;;;;;;5094328;28;20505;-67
2022/02/02 21:39:02;;;;;;;5.75;2.00;;;9.30;92.50;;;;;;5093710;28;20099;-67
2022/02/02 21:41:36;;;;;;;5.68;1.80;;;9.30;92.50;;;;;;5096362;28;20421;-67
2022/02/02 21:44:04;;;;;;;20.58;3.45;;;9.20;92.50;;;;;;5103680;27;20072;-67
2022/02/02 21:46:30;;;;;;;5.75;2.13;;;9.20;92.60;;;;;;5093876;28;20057;-67
2022/02/02 21:48:59;;;;;;;4.07;2.05;;;9.20;92.60;;;;;;5084019;28;20029;-67
2022/02/02 21:51:31;;;;;;;1.63;1.02;;;9.30;92.70;;;;;;5091443;28;20479;-67
2022/02/02 21:53:57;;;;;;;5.15;1.67;;;9.20;92.70;;;;;;5093104;28;20047;-67
2022/02/02 21:56:23;;;;;;;8.60;2.83;;;9.20;92.70;;;;;;5093861;28;20023;-67
2022/02/02 21:58:50;;;;;;;11.63;3.47;;;9.20;92.70;;;;;;5092770;28;20423;-67
2022/02/02 22:01:16;;;;;;;19.48;3.25;;;9.20;92.80;;;;;;5094084;28;20119;-67
2022/02/02 22:03:42;;;;;;;11.15;2.65;;;9.20;92.90;;;;;;5081940;28;20035;-67
2022/02/02 22:06:08;;;;;;;3.53;1.50;;;9.20;92.90;;;;;;5092852;28;20466;-67
2022/02/02 22:08:33;;;;;;;3.20;1.38;;;9.20;93.00;;;;;;5107237;28;20031;-67
2022/02/02 22:10:59;;;;;;;16.65;3.88;;;9.20;93.10;;;;;;5081076;28;20036;-67
2022/02/02 22:13:35;;;;;;;7.82;3.08;;;9.20;93.10;;;;;;5090960;28;20032;-67
2022/02/02 22:16:06;;;;;;;12.55;3.60;;;9.20;93.10;;;;;;5093895;28;20403;-67
2022/02/02 22:18:33;;;;;;;6.55;2.65;;;9.20;93.10;;;;;;5093217;28;20035;-67
2022/02/02 22:20:59;;;;;;;2.42;1.58;;;9.20;93.20;;;;;;5093070;28;20368;-67
2022/02/02 22:23:25;;;;;;;11.05;2.58;;;9.20;93.20;;;;;;5080015;28;20035;-67
2022/02/02 22:25:50;;;;;;;12.30;4.95;;;9.20;93.30;;;;;;5103662;28;20490;-67
2022/02/02 22:28:16;;;;;;;3.22;1.77;;;9.30;93.40;;;;;;5095646;28;20371;-67
2022/02/02 22:30:42;;;;;;;9.13;3.45;;;9.30;93.30;;;;;;5093410;28;20028;-67
2022/02/02 22:33:07;;;;;;;7.50;3.58;;;9.30;93.40;;;;;;5092544;28;20028;-67
2022/02/02 22:35:33;;;;;;;7.13;2.67;;;9.30;93.40;;;;;;5085784;28;20043;-67
2022/02/02 22:37:59;;;;;;;9.32;4.70;;;9.30;93.40;;;;;;5106622;28;20027;-67
2022/02/02 22:40:26;;;;;;;16.83;5.45;;;9.30;93.40;;;;;;5078909;28;20402;-68
2022/02/02 22:42:52;;;;;;;7.72;3.63;;;9.30;93.50;;;;;;5106281;28;20112;-67
2022/02/02 22:45:18;;;;;;;12.13;4.63;;;9.30;93.40;;;;;;5093367;28;20067;-67
2022/02/02 22:47:45;;;;;;;1.52;1.42;;;9.40;93.50;;;;;;5092037;28;20032;-67
2022/02/02 22:50:13;;;;;;;10.52;3.47;;;9.40;93.50;;;;;;5101588;28;20046;-67
2022/02/02 22:52:46;;;;;;;14.30;5.03;;;9.40;93.50;;;;;;5097907;28;20024;-67
2022/02/02 22:55:14;;;;;;;3.67;1.85;;;9.40;93.50;;;;;;5092056;28;20084;-67
2022/02/02 22:57:40;;;;;;;3.17;1.92;;;9.40;93.50;;;;;;5081128;28;20024;-67
2022/02/02 23:00:11;;;;;;;8.95;3.13;;;9.40;93.60;;;;;;5092573;28;20517;-67
2022/02/02 23:02:53;;;;;;;4.43;2.30;;;9.40;93.60;;;;;;5091858;28;20111;-67
2022/02/02 23:05:23;;;;;;;4.93;2.10;;;9.40;93.70;;;;;;5092575;28;20044;-67
2022/02/02 23:07:49;;;;;;;12.45;4.88;;;9.40;93.70;;;;;;5093080;28;20025;-67
2022/02/02 23:10:15;;;;;;;12.30;4.60;;;9.40;93.80;;;;;;5079289;28;20513;-67
2022/02/02 23:12:41;;;;;;;5.32;2.72;;;9.40;93.80;;;;;;5081368;28;20031;-67
2022/02/02 23:15:12;;;;;;;8.80;3.85;;;9.40;93.90;;;;;;5091733;28;20031;-67
2022/02/02 23:17:38;;;;;;;6.03;2.58;;;9.40;93.90;;;;;;5092827;28;20111;-67
2022/02/02 23:20:04;;;;;;;7.60;3.17;;;9.40;93.90;;;;;;5091831;28;20102;-67
2022/02/02 23:22:32;;;;;;;10.98;2.70;;;9.50;93.90;;;;;;5091787;28;20049;-67
2022/02/02 23:25:04;;;;;;;10.75;3.60;;;9.50;93.90;;;;;;5092354;28;20039;-67
2022/02/02 23:27:33;;;;;;;7.90;3.85;;;9.50;94.10;;;;;;5092602;28;20399;-67
2022/02/02 23:30:00;;;;;;;7.63;3.78;;;9.50;93.90;;;;;;5091612;28;20101;-67